createdAt,value
2017-08-28T00:00:28.867Z,14.30
2017-08-28T00:02:57.738Z,14.20
2017-08-28T00:05:26.612Z,14.10
2017-08-28T00:07:55.479Z,14.00
2017-08-28T00:10:24.372Z,13.90
2017-08-28T00:12:53.268Z,13.90
2017-08-28T00:15:22.274Z,13.80
2017-08-28T00:17:51.147Z,13.80
2017-08-28T00:20:20.062Z,13.70
2017-08-28T00:22:48.977Z,13.70
2017-08-28T00:25:18.308Z,13.60
2017-08-28T00:27:47.234Z,13.60
2017-08-28T00:30:16.184Z,13.50
2017-08-28T00:32:45.067Z,13.40
2017-08-28T00:35:13.993Z,13.40
2017-08-28T00:37:42.903Z,13.40
2017-08-28T00:40:11.818Z,13.40
2017-08-28T00:42:40.806Z,13.30
2017-08-28T00:45:10.120Z,13.30
2017-08-28T00:47:40.158Z,13.20
2017-08-28T00:50:09.105Z,13.10
2017-08-28T00:52:37.997Z,13.10
2017-08-28T00:55:06.943Z,13.00
2017-08-28T00:57:36.104Z,13.00
2017-08-28T01:00:05.786Z,12.90
2017-08-28T01:02:34.664Z,12.90
2017-08-28T01:05:04.026Z,12.80
2017-08-28T01:07:32.962Z,12.80
2017-08-28T01:10:01.872Z,12.80
2017-08-28T01:12:31.125Z,12.70
2017-08-28T01:15:00.055Z,12.70
2017-08-28T01:17:29.133Z,12.70
2017-08-28T01:19:58.076Z,12.70
2017-08-28T01:22:27.247Z,12.70
2017-08-28T01:24:56.153Z,12.70
2017-08-28T01:27:25.300Z,12.70
2017-08-28T01:29:54.251Z,12.60
2017-08-28T01:32:23.926Z,12.30
2017-08-28T01:34:53.043Z,12.30
2017-08-28T01:37:23.207Z,12.30
2017-08-28T01:39:52.108Z,12.20
2017-08-28T01:42:21.218Z,12.30
2017-08-28T01:44:50.205Z,12.30
2017-08-28T01:47:19.090Z,12.30
2017-08-28T01:49:47.983Z,12.40
2017-08-28T01:52:17.506Z,12.30
2017-08-28T01:54:46.403Z,12.30
2017-08-28T01:58:35.174Z,12.30
2017-08-28T02:01:04.207Z,12.10
2017-08-28T02:03:33.083Z,12.20
2017-08-28T02:06:02.407Z,12.20
2017-08-28T02:08:31.315Z,12.30
2017-08-28T02:11:00.331Z,12.30
2017-08-28T02:13:29.222Z,12.30
2017-08-28T02:15:58.430Z,12.30
2017-08-28T02:18:27.330Z,12.10
2017-08-28T02:20:56.695Z,12.00
2017-08-28T02:23:25.578Z,11.90
2017-08-28T02:25:54.776Z,11.90
2017-08-28T02:28:23.678Z,12.00
2017-08-28T02:30:52.604Z,11.90
2017-08-28T02:33:21.487Z,11.90
2017-08-28T02:35:50.558Z,11.80
2017-08-28T02:38:19.685Z,11.80
2017-08-28T02:40:49.608Z,11.90
2017-08-28T02:43:19.449Z,11.80
2017-08-28T02:45:48.358Z,11.80
2017-08-28T02:48:17.653Z,11.80
2017-08-28T02:50:47.099Z,11.80
2017-08-28T02:53:16.014Z,11.80
2017-08-28T02:55:44.925Z,11.80
2017-08-28T02:58:13.851Z,11.80
2017-08-28T03:00:42.778Z,11.80
2017-08-28T03:03:11.675Z,11.80
2017-08-28T03:05:40.850Z,11.70
2017-08-28T03:08:09.728Z,11.70
2017-08-28T03:11:40.845Z,11.70
2017-08-28T03:14:09.974Z,11.70
2017-08-28T03:16:38.857Z,11.70
2017-08-28T03:19:07.718Z,11.70
2017-08-28T03:21:36.606Z,11.70
2017-08-28T03:24:05.496Z,11.70
2017-08-28T03:26:34.562Z,11.70
2017-08-28T03:29:03.458Z,11.50
2017-08-28T03:31:32.359Z,11.50
2017-08-28T03:34:01.277Z,11.40
2017-08-28T03:36:30.235Z,11.40
2017-08-28T03:38:59.214Z,11.40
2017-08-28T03:41:28.094Z,11.40
2017-08-28T03:43:57.073Z,11.40
2017-08-28T03:46:26.055Z,11.40
2017-08-28T03:48:55.011Z,11.40
2017-08-28T03:51:24.003Z,11.40
2017-08-28T03:53:52.942Z,11.40
2017-08-28T03:56:21.984Z,11.30
2017-08-28T03:58:51.006Z,11.30
2017-08-28T04:01:20.029Z,11.20
2017-08-28T04:03:49.399Z,11.20
2017-08-28T04:06:18.370Z,11.30
2017-08-28T04:08:47.347Z,11.30
2017-08-28T04:11:16.274Z,11.30
2017-08-28T04:13:45.167Z,11.20
2017-08-28T04:16:14.078Z,11.20
2017-08-28T04:18:43.734Z,11.10
2017-08-28T04:21:12.655Z,11.10
2017-08-28T04:23:41.574Z,11.10
2017-08-28T04:26:10.586Z,11.10
2017-08-28T04:28:39.486Z,11.10
2017-08-28T04:31:08.396Z,11.10
2017-08-28T04:33:37.329Z,11.20
2017-08-28T04:36:07.175Z,11.10
2017-08-28T04:38:36.858Z,11.10
2017-08-28T04:41:05.913Z,11.00
2017-08-28T04:43:34.799Z,11.20
2017-08-28T04:46:03.733Z,11.20
2017-08-28T04:48:32.603Z,11.20
2017-08-28T04:51:01.546Z,11.10
2017-08-28T04:53:31.221Z,11.20
2017-08-28T04:56:00.193Z,11.10
2017-08-28T04:58:29.187Z,11.20
2017-08-28T05:00:58.101Z,11.20
2017-08-28T05:03:27.212Z,11.30
2017-08-28T05:05:56.170Z,11.30
2017-08-28T05:08:25.061Z,11.30
2017-08-28T05:10:53.920Z,11.40
2017-08-28T05:13:22.844Z,11.50
2017-08-28T05:15:52.205Z,11.60
2017-08-28T05:18:21.242Z,11.70
2017-08-28T05:20:50.384Z,11.80
2017-08-28T05:23:19.356Z,11.80
2017-08-28T05:25:49.117Z,12.40
2017-08-28T05:28:18.068Z,12.30
2017-08-28T05:30:46.999Z,12.80
2017-08-28T05:33:15.898Z,13.00
2017-08-28T05:35:44.817Z,13.30
2017-08-28T05:39:32.886Z,13.60
2017-08-28T05:42:02.623Z,14.10
2017-08-28T05:44:31.588Z,14.00
2017-08-28T05:47:01.337Z,14.70
2017-08-28T05:49:31.098Z,14.80
2017-08-28T05:52:00.073Z,14.80
2017-08-28T05:54:29.044Z,14.80
2017-08-28T05:56:58.078Z,14.90
2017-08-28T05:59:30.370Z,15.00
2017-08-28T06:02:00.096Z,15.40
2017-08-28T06:04:29.180Z,15.40
2017-08-28T06:06:58.242Z,15.50
2017-08-28T06:09:27.222Z,15.60
2017-08-28T06:11:56.231Z,15.70
2017-08-28T06:14:25.400Z,16.00
2017-08-28T06:16:54.332Z,16.20
2017-08-28T06:19:23.259Z,16.50
2017-08-28T06:21:52.215Z,16.50
2017-08-28T06:24:22.015Z,16.50
2017-08-28T06:26:50.995Z,16.50
2017-08-28T06:29:20.150Z,16.70
2017-08-28T06:31:49.484Z,16.80
2017-08-28T06:34:18.596Z,16.90
2017-08-28T06:36:47.507Z,16.90
2017-08-28T06:39:17.213Z,17.30
2017-08-28T06:41:46.159Z,17.30
2017-08-28T06:44:15.880Z,17.80
2017-08-28T06:46:44.817Z,18.20
2017-08-28T06:49:14.475Z,18.60
2017-08-28T06:51:43.679Z,18.50
2017-08-28T06:54:12.642Z,18.90
2017-08-28T06:56:41.618Z,19.10
2017-08-28T06:59:11.414Z,19.40
2017-08-28T07:01:41.205Z,19.70
2017-08-28T07:04:11.019Z,20.00
2017-08-28T07:06:40.461Z,19.90
2017-08-28T07:09:09.356Z,20.10
2017-08-28T07:11:38.379Z,20.40
2017-08-28T07:14:07.471Z,20.40
2017-08-28T07:16:36.468Z,20.50
2017-08-28T07:19:05.518Z,20.50
2017-08-28T07:21:34.433Z,20.70
2017-08-28T07:24:03.361Z,20.80
2017-08-28T07:26:33.018Z,21.00
2017-08-28T07:29:01.931Z,21.20
2017-08-28T07:31:30.997Z,21.30
2017-08-28T07:34:02.983Z,21.50
2017-08-28T07:36:40.276Z,21.50
2017-08-28T07:39:09.290Z,21.70
2017-08-28T07:41:38.248Z,22.20
2017-08-28T07:44:07.198Z,22.40
2017-08-28T07:46:36.167Z,22.60
2017-08-28T07:49:06.017Z,22.90
2017-08-28T07:51:34.981Z,22.80
2017-08-28T07:54:04.008Z,23.20
2017-08-28T07:56:33.493Z,23.20
2017-08-28T07:59:05.577Z,23.20
2017-08-28T08:01:35.997Z,23.60
2017-08-28T08:04:04.943Z,23.50
2017-08-28T08:06:33.909Z,23.30
2017-08-28T08:09:02.839Z,23.50
2017-08-28T08:11:31.824Z,24.00
2017-08-28T08:14:00.864Z,24.00
2017-08-28T08:16:29.911Z,23.60
2017-08-28T08:18:58.836Z,23.90
2017-08-28T08:21:28.004Z,23.60
2017-08-28T08:23:56.948Z,23.70
2017-08-28T08:26:26.697Z,23.30
2017-08-28T08:28:55.643Z,23.30
2017-08-28T08:31:24.600Z,23.40
2017-08-28T08:33:57.777Z,23.50
2017-08-28T08:36:26.678Z,23.40
2017-08-28T08:38:56.420Z,24.10
2017-08-28T08:41:26.244Z,24.50
2017-08-28T08:43:56.058Z,24.80
2017-08-28T08:46:25.759Z,24.60
2017-08-28T08:48:54.712Z,24.60
2017-08-28T08:51:23.639Z,25.20
2017-08-28T08:53:52.619Z,25.30
2017-08-28T08:56:21.683Z,25.70
2017-08-28T08:58:50.803Z,25.40
2017-08-28T09:01:19.744Z,24.90
2017-08-28T09:03:49.918Z,24.50
2017-08-28T09:06:18.883Z,24.70
2017-08-28T09:08:47.915Z,25.60
2017-08-28T09:11:17.619Z,26.10
2017-08-28T09:13:46.586Z,26.00
2017-08-28T09:16:15.800Z,26.90
2017-08-28T09:18:45.080Z,28.00
2017-08-28T09:21:14.177Z,27.80
2017-08-28T09:23:43.139Z,28.40
2017-08-28T09:26:12.123Z,28.20
2017-08-28T09:28:41.260Z,28.70
2017-08-28T09:31:10.626Z,29.60
2017-08-28T09:34:10.446Z,30.20
2017-08-28T09:36:39.479Z,30.10
2017-08-28T09:39:08.387Z,29.70
2017-08-28T09:41:38.196Z,28.70
2017-08-28T09:44:07.268Z,28.70
2017-08-28T09:46:36.226Z,28.30
2017-08-28T09:49:05.255Z,28.50
2017-08-28T09:51:34.168Z,28.40
2017-08-28T09:54:03.201Z,29.10
2017-08-28T09:56:33.101Z,29.50
2017-08-28T09:59:02.908Z,30.70
2017-08-28T10:04:31.273Z,31.80
2017-08-28T10:07:00.208Z,30.20
2017-08-28T10:09:29.159Z,29.90
2017-08-28T10:12:01.121Z,31.30
2017-08-28T10:14:30.146Z,30.90
2017-08-28T10:16:59.925Z,31.60
2017-08-28T10:19:28.921Z,31.50
2017-08-28T10:21:58.378Z,31.90
2017-08-28T10:24:27.360Z,31.80
2017-08-28T10:26:55.387Z,31.10
2017-08-28T10:29:25.543Z,31.80
2017-08-28T10:31:55.886Z,31.60
2017-08-28T10:34:24.873Z,31.50
2017-08-28T10:36:54.174Z,32.20
2017-08-28T10:39:23.941Z,33.30
2017-08-28T10:41:53.750Z,32.30
2017-08-28T10:44:23.166Z,32.20
2017-08-28T10:46:52.809Z,31.10
2017-08-28T10:49:22.564Z,30.30
2017-08-28T10:51:51.698Z,30.20
2017-08-28T10:54:21.478Z,30.80
2017-08-28T10:56:52.461Z,31.00
2017-08-28T10:59:27.307Z,31.00
2017-08-28T11:01:56.241Z,32.10
2017-08-28T11:04:25.987Z,32.90
2017-08-28T11:06:55.734Z,32.40
2017-08-28T11:09:24.733Z,32.40
2017-08-28T11:11:53.698Z,31.80
2017-08-28T11:14:23.720Z,29.50
2017-08-28T11:17:24.711Z,28.90
2017-08-28T11:22:46.710Z,28.70
2017-08-28T11:25:15.764Z,28.70
2017-08-28T11:27:45.531Z,29.10
2017-08-28T11:30:14.709Z,29.00
2017-08-28T11:32:44.457Z,29.40
2017-08-28T11:35:13.417Z,29.30
2017-08-28T11:37:42.413Z,28.60
2017-08-28T11:40:11.748Z,28.60
2017-08-28T11:42:40.760Z,29.00
2017-08-28T11:45:10.650Z,28.20
2017-08-28T11:47:39.710Z,28.10
2017-08-28T11:50:09.681Z,28.00
2017-08-28T11:52:53.152Z,28.00
2017-08-28T11:55:22.924Z,28.10
2017-08-28T11:57:51.994Z,28.00
2017-08-28T12:00:21.503Z,28.40
2017-08-28T12:02:50.556Z,28.10
2017-08-28T12:05:20.447Z,27.90
2017-08-28T12:07:49.397Z,27.90
2017-08-28T12:10:18.446Z,27.80
2017-08-28T12:12:48.200Z,26.60
2017-08-28T12:15:17.198Z,26.60
2017-08-28T12:17:46.305Z,26.90
2017-08-28T12:20:15.288Z,26.90
2017-08-28T12:22:44.264Z,26.00
2017-08-28T12:25:13.292Z,25.80
2017-08-28T12:27:42.341Z,26.60
2017-08-28T12:30:11.351Z,27.00
2017-08-28T12:32:40.466Z,26.00
2017-08-28T12:35:10.170Z,25.90
2017-08-28T12:37:39.165Z,25.90
2017-08-28T12:40:08.141Z,26.50
2017-08-28T12:42:37.107Z,26.10
2017-08-28T12:45:06.155Z,25.70
2017-08-28T12:47:35.115Z,25.60
2017-08-28T12:50:04.022Z,25.80
2017-08-28T12:52:33.125Z,26.10
2017-08-28T12:55:02.131Z,26.60
2017-08-28T12:57:31.928Z,26.20
2017-08-28T13:00:01.003Z,26.20
2017-08-28T13:02:31.150Z,26.40
2017-08-28T13:05:01.302Z,26.40
2017-08-28T13:07:30.283Z,27.00
2017-08-28T13:09:59.971Z,27.80
2017-08-28T13:12:28.955Z,27.80
2017-08-28T13:14:58.926Z,27.50
2017-08-28T13:17:27.873Z,27.40
2017-08-28T13:19:56.911Z,27.80
2017-08-28T13:22:26.238Z,27.80
2017-08-28T13:24:55.217Z,27.10
2017-08-28T13:27:24.387Z,26.50
2017-08-28T13:29:58.482Z,26.30
2017-08-28T13:32:28.060Z,25.60
2017-08-28T13:34:57.068Z,24.90
2017-08-28T13:37:26.063Z,25.20
2017-08-28T13:39:55.138Z,25.20
2017-08-28T13:42:24.135Z,25.30
2017-08-28T13:44:53.291Z,24.90
2017-08-28T13:47:23.116Z,25.30
2017-08-28T13:49:52.115Z,25.30
2017-08-28T13:52:21.138Z,25.40
2017-08-28T13:54:50.884Z,25.10
2017-08-28T13:57:21.238Z,24.80
2017-08-28T13:59:50.425Z,24.80
2017-08-28T14:02:19.630Z,24.50
2017-08-28T14:04:48.618Z,24.50
2017-08-28T14:07:17.680Z,24.60
2017-08-28T14:09:47.699Z,24.40
2017-08-28T14:12:16.679Z,24.30
2017-08-28T14:14:46.474Z,24.70
2017-08-28T14:17:19.299Z,24.60
2017-08-28T14:19:48.414Z,24.30
2017-08-28T14:22:17.621Z,24.30
2017-08-28T14:24:46.616Z,24.10
2017-08-28T14:27:15.630Z,24.50
2017-08-28T14:29:44.868Z,24.40
2017-08-28T14:32:16.702Z,24.00
2017-08-28T14:34:45.673Z,23.90
2017-08-28T14:37:14.689Z,24.10
2017-08-28T14:39:43.666Z,24.00
2017-08-28T14:42:13.008Z,24.20
2017-08-28T14:44:42.752Z,24.30
2017-08-28T14:47:12.759Z,24.30
2017-08-28T14:49:42.038Z,24.20
2017-08-28T14:52:11.041Z,24.40
2017-08-28T14:54:40.043Z,24.40
2017-08-28T14:57:09.010Z,24.30
2017-08-28T14:59:38.068Z,24.30
2017-08-28T15:02:07.087Z,24.10
2017-08-28T15:04:36.069Z,24.00
2017-08-28T15:07:05.047Z,23.50
2017-08-28T15:09:34.062Z,23.90
2017-08-28T15:12:03.126Z,24.00
2017-08-28T15:14:32.206Z,24.00
2017-08-28T15:17:01.431Z,23.70
2017-08-28T15:19:30.359Z,23.50
2017-08-28T15:21:59.363Z,23.50
2017-08-28T15:24:29.171Z,23.60
2017-08-28T15:26:58.300Z,23.50
2017-08-28T15:29:27.327Z,23.40
2017-08-28T15:31:56.385Z,23.50
2017-08-28T15:34:26.561Z,23.60
2017-08-28T15:36:56.311Z,23.30
2017-08-28T15:39:25.414Z,23.20
2017-08-28T15:42:24.681Z,23.20
2017-08-28T15:44:54.421Z,23.40
2017-08-28T15:47:24.140Z,23.40
2017-08-28T15:49:53.243Z,23.30
2017-08-28T15:52:36.815Z,23.30
2017-08-28T15:55:06.617Z,23.20
2017-08-28T15:57:35.633Z,23.10
2017-08-28T16:00:04.630Z,23.20
2017-08-28T16:02:34.278Z,23.10
2017-08-28T16:05:03.731Z,23.00
2017-08-28T16:07:32.758Z,23.00
2017-08-28T16:10:01.813Z,22.80
2017-08-28T16:12:30.801Z,22.80
2017-08-28T16:14:59.852Z,22.70
2017-08-28T16:17:28.850Z,22.70
2017-08-28T16:19:58.028Z,22.70
2017-08-28T16:22:27.075Z,22.70
2017-08-28T16:24:56.119Z,22.70
2017-08-28T16:27:26.030Z,22.70
2017-08-28T16:29:55.007Z,22.70
2017-08-28T16:32:24.920Z,22.60
2017-08-28T16:34:53.886Z,22.60
2017-08-28T16:37:23.691Z,22.60
2017-08-28T16:39:52.727Z,22.50
2017-08-28T16:42:22.574Z,22.40
2017-08-28T16:44:51.606Z,22.40
2017-08-28T16:47:21.612Z,22.50
2017-08-28T16:49:50.600Z,22.50
2017-08-28T16:52:19.564Z,22.40
2017-08-28T16:54:48.531Z,22.40
2017-08-28T16:57:17.507Z,22.40
2017-08-28T16:59:46.515Z,22.20
2017-08-28T17:02:16.259Z,21.90
2017-08-28T17:04:45.242Z,21.90
2017-08-28T17:07:14.226Z,21.80
2017-08-28T17:09:46.746Z,21.80
2017-08-28T17:12:16.899Z,21.60
2017-08-28T17:14:46.926Z,21.50
2017-08-28T17:17:15.876Z,21.40
2017-08-28T17:19:45.606Z,21.20
2017-08-28T17:22:14.734Z,21.20
2017-08-28T17:24:43.723Z,21.20
2017-08-28T17:27:19.632Z,20.80
2017-08-28T17:29:49.422Z,20.70
2017-08-28T17:32:18.393Z,20.70
2017-08-28T17:34:47.426Z,20.70
2017-08-28T17:37:16.407Z,20.70
2017-08-28T17:39:45.366Z,20.60
2017-08-28T17:42:14.429Z,20.40
2017-08-28T17:44:43.499Z,20.20
2017-08-28T17:47:13.270Z,20.10
2017-08-28T17:49:43.014Z,19.90
2017-08-28T17:52:12.033Z,19.80
2017-08-28T17:54:41.074Z,19.90
2017-08-28T17:57:10.336Z,19.80
2017-08-28T17:59:39.226Z,19.70
2017-08-28T18:02:08.198Z,19.70
2017-08-28T18:04:37.099Z,19.60
2017-08-28T18:07:06.025Z,19.60
2017-08-28T18:09:34.970Z,19.50
2017-08-28T18:12:04.717Z,19.20
2017-08-28T18:14:34.598Z,19.20
2017-08-28T18:17:03.584Z,19.10
2017-08-28T18:19:32.604Z,19.20
2017-08-28T18:22:02.279Z,19.20
2017-08-28T18:24:34.304Z,19.20
2017-08-28T18:27:03.628Z,19.20
2017-08-28T18:29:32.663Z,19.20
2017-08-28T18:32:01.686Z,19.20
2017-08-28T18:34:30.625Z,19.20
2017-08-28T18:36:59.586Z,19.20
2017-08-28T18:39:28.579Z,19.00
2017-08-28T18:41:58.320Z,18.90
2017-08-28T18:44:27.238Z,18.80
2017-08-28T18:46:56.259Z,18.80
2017-08-28T18:49:31.789Z,18.80
2017-08-28T18:52:01.512Z,18.80
2017-08-28T18:54:30.434Z,18.80
2017-08-28T18:56:59.356Z,18.90
2017-08-28T18:59:28.328Z,18.90
2017-08-28T19:01:57.255Z,18.80
2017-08-28T19:04:26.288Z,18.70
2017-08-28T19:06:55.650Z,18.60
2017-08-28T19:09:24.665Z,18.50
2017-08-28T19:11:53.751Z,18.40
2017-08-28T19:14:24.716Z,18.30
2017-08-28T19:18:13.645Z,18.30
2017-08-28T19:20:43.452Z,18.00
2017-08-28T19:23:12.417Z,17.90
2017-08-28T19:25:41.483Z,17.90
2017-08-28T19:28:10.558Z,17.80
2017-08-28T19:30:40.265Z,17.80
2017-08-28T19:33:10.087Z,17.70
2017-08-28T19:35:38.993Z,17.80
2017-08-28T19:38:08.996Z,17.80
2017-08-28T19:40:39.013Z,17.60
2017-08-28T19:43:07.974Z,17.50
2017-08-28T19:45:36.915Z,17.60
2017-08-28T19:48:05.866Z,17.60
2017-08-28T19:50:35.631Z,17.60
2017-08-28T19:54:23.932Z,17.50
2017-08-28T19:56:53.859Z,17.50
2017-08-28T19:59:23.059Z,17.50
2017-08-28T20:01:52.603Z,17.60
2017-08-28T20:04:21.567Z,17.60
2017-08-28T20:06:50.764Z,17.50
2017-08-28T20:09:19.758Z,17.60
2017-08-28T20:11:48.679Z,17.60
2017-08-28T20:14:18.017Z,17.60
2017-08-28T20:16:47.719Z,17.50
2017-08-28T20:19:17.395Z,17.50
2017-08-28T20:21:46.365Z,17.50
2017-08-28T20:24:15.343Z,17.50
2017-08-28T20:26:44.397Z,17.50
2017-08-28T20:29:13.468Z,17.40
2017-08-28T20:31:42.531Z,17.30
2017-08-28T20:34:12.259Z,17.20
2017-08-28T20:36:41.276Z,17.10
2017-08-28T20:39:10.272Z,16.90
2017-08-28T20:41:39.219Z,16.80
2017-08-28T20:44:09.130Z,16.80
2017-08-28T20:46:38.088Z,16.70
2017-08-28T20:49:07.119Z,16.70
2017-08-28T20:51:36.173Z,16.60
2017-08-28T20:54:05.120Z,16.60
2017-08-28T20:56:34.167Z,16.60
2017-08-28T20:59:03.180Z,16.40
2017-08-28T21:01:32.150Z,16.30
2017-08-28T21:04:01.230Z,16.30
2017-08-28T21:06:30.206Z,16.30
2017-08-28T21:08:59.206Z,16.30
2017-08-28T21:11:28.142Z,16.20
2017-08-28T21:13:57.046Z,16.20
2017-08-28T21:16:26.014Z,16.20
2017-08-28T21:18:54.912Z,16.20
2017-08-28T21:21:24.648Z,16.00
2017-08-28T21:23:53.665Z,16.00
2017-08-28T21:26:22.605Z,16.10
2017-08-28T21:28:52.299Z,16.00
2017-08-28T21:31:21.262Z,15.90
2017-08-28T21:33:50.172Z,16.00
2017-08-28T21:36:19.395Z,16.00
2017-08-28T21:38:48.648Z,15.90
2017-08-28T21:41:17.608Z,15.90
2017-08-28T21:43:46.622Z,16.00
2017-08-28T21:46:15.540Z,16.00
2017-08-28T21:48:44.688Z,16.00
2017-08-28T21:51:13.712Z,16.00
2017-08-28T21:53:42.666Z,16.10
2017-08-28T21:56:11.599Z,16.10
2017-08-28T21:58:40.566Z,16.10
2017-08-28T22:01:09.505Z,16.20
2017-08-28T22:03:38.411Z,16.30
2017-08-28T22:06:07.362Z,16.30
2017-08-28T22:08:37.066Z,16.10
2017-08-28T22:11:06.031Z,16.00
2017-08-28T22:13:36.024Z,15.90
2017-08-28T22:16:05.016Z,15.70
2017-08-28T22:18:33.980Z,15.60
2017-08-28T22:21:02.904Z,15.60
2017-08-28T22:23:31.838Z,15.60
2017-08-28T22:26:01.495Z,15.60
2017-08-28T22:28:30.444Z,15.50
2017-08-28T22:30:59.425Z,15.60
2017-08-28T22:33:28.362Z,15.60
2017-08-28T22:35:57.367Z,15.60
2017-08-28T22:38:27.118Z,15.80
2017-08-28T22:40:56.133Z,15.70
2017-08-28T22:43:25.343Z,15.80
2017-08-28T22:45:54.263Z,15.80
2017-08-28T22:48:23.210Z,15.80
2017-08-28T22:50:52.094Z,15.80
2017-08-28T22:53:21.040Z,15.70
2017-08-28T22:55:50.004Z,15.60
2017-08-28T22:58:18.908Z,15.60
2017-08-28T23:00:48.633Z,15.50
2017-08-28T23:03:47.754Z,15.40
2017-08-28T23:06:16.747Z,15.40
2017-08-28T23:08:45.681Z,15.30
2017-08-28T23:11:14.591Z,15.20
2017-08-28T23:13:43.463Z,15.20
2017-08-28T23:16:12.343Z,15.20
2017-08-28T23:18:41.294Z,15.20
2017-08-28T23:21:11.006Z,15.10
2017-08-28T23:23:39.907Z,15.00
2017-08-28T23:26:08.854Z,15.10
2017-08-28T23:28:38.834Z,15.00
2017-08-28T23:31:07.805Z,15.00
2017-08-28T23:33:38.790Z,15.00
2017-08-28T23:36:07.737Z,15.00
2017-08-28T23:38:38.202Z,15.00
2017-08-28T23:41:07.125Z,15.00
2017-08-28T23:43:37.383Z,15.10
2017-08-28T23:46:06.296Z,15.10
2017-08-28T23:48:36.582Z,15.00
2017-08-28T23:51:05.529Z,15.10
2017-08-28T23:53:35.823Z,15.10
2017-08-28T23:56:04.726Z,15.10
2017-08-28T23:58:33.616Z,15.10
